Time;durP1;ratioP1;P1;durP2;ratioP2;P2;SDS_P1;SDS_P2;PMS_P1;PMS_P2;Temp;Humidity;BMP_temperature;BMP_pressure;BME280_temperature;BME280_humidity;BME280_pressure;Samples;Min_cycle;Max_cycle;Signal;HPM_P1;HPM_P2
2022/07/14 00:02:17;;;;;;;0.30;0.30;;;14.80;99.90;;;;;;5073202;28;20124;-84
2022/07/14 00:04:43;;;;;;;0.13;0.10;;;14.80;99.90;;;;;;5073514;28;20045;-84
2022/07/14 00:07:10;;;;;;;0.10;0.10;;;14.80;99.90;;;;;;5056639;28;20123;-87
2022/07/14 00:09:37;;;;;;;0.17;0.10;;;14.80;99.90;;;;;;5056865;28;20044;-87
2022/07/14 00:12:04;;;;;;;0.10;0.10;;;14.70;99.90;;;;;;5040531;28;20043;-88
2022/07/14 00:14:31;;;;;;;0.15;0.10;;;14.70;99.90;;;;;;5056895;28;20048;-87
2022/07/14 00:16:58;;;;;;;0.05;0.05;;;14.70;99.90;;;;;;5057402;28;20041;-88
2022/07/14 00:19:24;;;;;;;0.08;0.08;;;14.60;99.90;;;;;;5056847;28;20127;-87
2022/07/14 00:21:51;;;;;;;0.32;0.30;;;14.60;99.90;;;;;;5072941;28;20029;-84
2022/07/14 00:24:18;;;;;;;0.28;0.10;;;14.60;99.90;;;;;;5040117;28;20044;-87
2022/07/14 00:26:45;;;;;;;0.43;0.20;;;14.60;99.90;;;;;;5057571;28;20045;-87
2022/07/14 00:29:11;;;;;;;0.15;0.10;;;14.50;99.90;;;;;;5040402;28;20456;-84
2022/07/14 00:31:38;;;;;;;0.20;0.20;;;14.50;99.90;;;;;;5056309;28;20037;-87
2022/07/14 00:34:05;;;;;;;0.03;0.03;;;14.50;99.90;;;;;;5056555;28;20120;-84
2022/07/14 00:36:32;;;;;;;0.10;0.10;;;14.40;99.90;;;;;;5039807;28;20072;-87
2022/07/14 00:38:58;;;;;;;0.10;0.10;;;14.40;99.90;;;;;;5040416;28;20049;-87
2022/07/14 00:41:25;;;;;;;0.20;0.20;;;14.40;99.90;;;;;;5040783;28;20040;-87
2022/07/14 00:43:52;;;;;;;0.10;0.10;;;14.30;99.90;;;;;;5040084;28;20078;-87
2022/07/14 00:46:18;;;;;;;0.10;0.10;;;14.30;99.90;;;;;;5039859;28;20577;-84
2022/07/14 00:48:45;;;;;;;0.10;0.10;;;14.30;99.90;;;;;;5040635;28;20041;-87
2022/07/14 00:51:12;;;;;;;0.10;0.10;;;14.30;99.90;;;;;;5040316;28;20631;-84
2022/07/14 00:53:38;;;;;;;0.13;0.13;;;14.30;99.90;;;;;;5039497;28;20044;-84
2022/07/14 00:56:05;;;;;;;0.20;0.20;;;14.30;99.90;;;;;;5036451;28;20044;-87
2022/07/14 00:58:33;;;;;;;0.28;0.25;;;14.30;99.90;;;;;;5041698;28;20052;-85
2022/07/14 01:01:00;;;;;;;1.17;0.70;;;14.30;99.90;;;;;;5089816;28;20033;-87
2022/07/14 01:03:27;;;;;;;0.05;0.05;;;14.30;99.90;;;;;;5041010;28;20155;-87
2022/07/14 01:05:53;;;;;;;0.05;0.05;;;14.20;99.90;;;;;;5030590;28;20036;-84
2022/07/14 01:08:20;;;;;;;0.10;0.10;;;14.20;99.90;;;;;;5023963;28;20055;-86
2022/07/14 01:10:47;;;;;;;0.35;0.10;;;14.20;99.90;;;;;;5024341;28;20453;-88
2022/07/14 01:13:13;;;;;;;0.20;0.15;;;14.20;99.90;;;;;;5024428;28;20091;-87
2022/07/14 01:15:40;;;;;;;0.20;0.20;;;14.10;99.90;;;;;;5048197;28;20567;-84
2022/07/14 01:18:07;;;;;;;0.10;0.10;;;14.10;99.90;;;;;;5059661;28;20040;-87
2022/07/14 01:20:34;;;;;;;0.20;0.20;;;14.00;99.90;;;;;;5056118;28;20033;-87
2022/07/14 01:23:01;;;;;;;0.00;0.00;;;14.00;99.90;;;;;;5055998;28;20094;-87
2022/07/14 01:25:28;;;;;;;0.00;0.00;;;14.00;99.90;;;;;;5041210;28;20037;-87
2022/07/14 01:27:54;;;;;;;0.10;0.10;;;14.00;99.90;;;;;;5043029;28;20190;-83
2022/07/14 01:30:21;;;;;;;0.17;0.17;;;14.00;99.90;;;;;;5059528;28;20040;-84
2022/07/14 01:32:48;;;;;;;0.10;0.10;;;13.90;99.90;;;;;;5059274;28;20041;-84
2022/07/14 01:35:15;;;;;;;0.43;0.40;;;13.90;99.90;;;;;;5059378;28;20048;-87
2022/07/14 01:37:42;;;;;;;0.20;0.10;;;13.90;99.90;;;;;;5082451;28;20055;-86
2022/07/14 01:40:09;;;;;;;0.10;0.10;;;13.80;99.90;;;;;;5040023;28;20049;-87
2022/07/14 01:42:36;;;;;;;0.17;0.17;;;13.80;99.90;;;;;;5072269;28;20486;-84
2022/07/14 01:45:03;;;;;;;0.13;0.13;;;13.80;99.90;;;;;;5056076;28;20044;-87
2022/07/14 01:47:30;;;;;;;0.10;0.10;;;13.70;99.90;;;;;;5055437;28;20108;-84
2022/07/14 01:49:57;;;;;;;0.10;0.10;;;13.70;99.90;;;;;;5039458;28;20410;-84
2022/07/14 01:52:23;;;;;;;0.00;0.00;;;13.70;99.90;;;;;;5055928;28;20080;-87
2022/07/14 01:54:50;;;;;;;0.20;0.20;;;13.70;99.90;;;;;;5039103;28;20033;-84
2022/07/14 01:57:17;;;;;;;0.05;0.05;;;13.60;99.90;;;;;;5038994;28;20037;-84
2022/07/14 01:59:43;;;;;;;0.15;0.08;;;13.60;99.90;;;;;;5072011;28;20379;-84
2022/07/14 02:02:12;;;;;;;0.15;0.10;;;13.60;99.90;;;;;;5039378;28;20044;-87
2022/07/14 02:04:39;;;;;;;0.10;0.10;;;13.50;99.90;;;;;;5055913;28;20099;-87
2022/07/14 02:07:07;;;;;;;0.03;0.03;;;13.50;99.90;;;;;;5055657;28;20037;-87
2022/07/14 02:12:18;;;;;;;0.10;0.10;;;13.40;99.90;;;;;;5074504;28;20473;-84
2022/07/14 02:14:45;;;;;;;0.13;0.13;;;13.40;99.90;;;;;;5053411;28;20132;-85
2022/07/14 02:17:12;;;;;;;0.10;0.10;;;13.30;99.90;;;;;;5038496;28;20322;-87
2022/07/14 02:19:39;;;;;;;0.45;0.45;;;13.30;99.90;;;;;;5054660;28;20041;-84
2022/07/14 02:22:05;;;;;;;0.05;0.05;;;13.30;99.90;;;;;;5038822;28;20068;-87
2022/07/14 02:24:32;;;;;;;0.13;0.13;;;13.20;99.90;;;;;;5088197;28;20056;-87
2022/07/14 02:26:59;;;;;;;0.10;0.10;;;13.20;99.90;;;;;;5055606;28;20110;-87
2022/07/14 02:29:26;;;;;;;0.10;0.10;;;13.20;99.90;;;;;;5038950;28;20055;-84
2022/07/14 02:31:53;;;;;;;0.20;0.20;;;13.20;99.90;;;;;;5054690;28;20535;-87
2022/07/14 02:34:20;;;;;;;0.10;0.10;;;13.10;99.90;;;;;;5055121;28;20037;-88
2022/07/14 02:36:47;;;;;;;0.10;0.10;;;13.10;99.90;;;;;;5057421;28;20079;-84
2022/07/14 02:39:14;;;;;;;0.10;0.10;;;13.10;99.90;;;;;;5042269;28;20044;-87
2022/07/14 02:41:42;;;;;;;0.20;0.20;;;13.00;99.90;;;;;;5074986;28;20037;-87
2022/07/14 02:44:09;;;;;;;0.20;0.20;;;13.10;99.90;;;;;;5058658;28;20033;-84
2022/07/14 02:46:36;;;;;;;0.20;0.10;;;13.00;99.90;;;;;;5058377;28;20438;-87
2022/07/14 02:49:04;;;;;;;0.25;0.17;;;13.00;99.90;;;;;;5078199;28;20147;-84
2022/07/14 02:51:31;;;;;;;0.20;0.20;;;13.00;99.90;;;;;;5077606;28;20126;-87
2022/07/14 02:53:57;;;;;;;0.20;0.20;;;12.90;99.90;;;;;;5111514;28;20070;-84
2022/07/14 02:56:24;;;;;;;0.10;0.10;;;12.90;99.90;;;;;;5094821;28;20044;-87
2022/07/14 02:58:51;;;;;;;0.38;0.20;;;12.80;99.90;;;;;;5086317;28;20075;-87
2022/07/14 03:01:17;;;;;;;0.38;0.20;;;12.80;99.90;;;;;;5090716;28;20517;-87
2022/07/14 03:03:44;;;;;;;0.10;0.10;;;12.80;99.90;;;;;;5090504;28;20047;-84
2022/07/14 03:06:14;;;;;;;0.13;0.13;;;12.80;99.90;;;;;;5073768;28;20080;-84
2022/07/14 03:08:42;;;;;;;0.10;0.10;;;12.70;99.90;;;;;;5106439;28;20516;-87
2022/07/14 03:11:09;;;;;;;0.20;0.10;;;12.70;99.90;;;;;;5090622;28;20032;-84
2022/07/14 03:13:36;;;;;;;0.10;0.10;;;12.80;99.90;;;;;;5089608;28;20095;-87
2022/07/14 03:16:06;;;;;;;0.20;0.15;;;12.70;99.90;;;;;;5107014;28;20084;-84
2022/07/14 03:18:33;;;;;;;0.10;0.10;;;12.70;99.90;;;;;;5074508;28;20036;-84
2022/07/14 03:20:59;;;;;;;0.63;0.30;;;12.80;99.90;;;;;;5073548;28;20611;-87
2022/07/14 03:23:26;;;;;;;0.20;0.20;;;12.80;99.90;;;;;;5073929;28;20395;-87
2022/07/14 03:25:52;;;;;;;0.93;0.30;;;12.70;99.90;;;;;;5072693;28;20507;-84
2022/07/14 03:28:19;;;;;;;0.22;0.22;;;12.70;99.90;;;;;;5107286;28;20044;-87
2022/07/14 03:30:46;;;;;;;0.15;0.15;;;12.80;99.90;;;;;;5090341;28;20044;-87
2022/07/14 03:33:12;;;;;;;0.20;0.20;;;12.70;99.90;;;;;;5073875;28;20494;-87
2022/07/14 03:35:39;;;;;;;0.20;0.20;;;12.70;99.90;;;;;;5090242;28;20436;-84
2022/07/14 03:38:07;;;;;;;0.10;0.10;;;12.80;99.90;;;;;;5106229;28;20152;-87
2022/07/14 03:40:33;;;;;;;0.15;0.15;;;12.70;99.90;;;;;;5107303;28;20391;-84
2022/07/14 03:43:01;;;;;;;0.17;0.17;;;12.80;99.90;;;;;;5089998;28;20044;-84
2022/07/14 03:45:28;;;;;;;0.10;0.10;;;12.80;99.90;;;;;;5073464;28;20068;-87
2022/07/14 03:47:55;;;;;;;0.13;0.10;;;12.80;99.90;;;;;;5072866;28;20076;-87
2022/07/14 03:50:21;;;;;;;0.10;0.10;;;12.80;99.90;;;;;;5089569;28;20457;-84
2022/07/14 03:52:48;;;;;;;0.20;0.20;;;12.80;99.90;;;;;;5089424;28;20058;-84
2022/07/14 03:55:15;;;;;;;0.10;0.10;;;12.90;99.90;;;;;;5089840;28;20045;-87
2022/07/14 03:57:42;;;;;;;0.25;0.10;;;12.80;99.90;;;;;;5089516;28;20102;-84
2022/07/14 04:00:10;;;;;;;0.13;0.10;;;12.80;99.90;;;;;;5106479;28;20119;-83
2022/07/14 04:02:37;;;;;;;0.10;0.10;;;12.80;99.90;;;;;;5106645;28;20036;-84
2022/07/14 04:05:04;;;;;;;0.10;0.10;;;12.80;99.90;;;;;;5089337;28;20037;-87
2022/07/14 04:07:30;;;;;;;0.00;0.00;;;12.80;99.90;;;;;;5106806;28;20123;-84
2022/07/14 04:09:57;;;;;;;0.10;0.10;;;12.80;99.90;;;;;;5072649;28;20075;-84
2022/07/14 04:12:24;;;;;;;0.10;0.10;;;12.80;99.90;;;;;;5106119;28;20040;-83
2022/07/14 04:14:51;;;;;;;0.10;0.10;;;12.80;99.90;;;;;;5089674;28;20489;-84
2022/07/14 04:17:17;;;;;;;0.20;0.20;;;12.80;99.90;;;;;;5073166;28;20041;-87
2022/07/14 04:19:44;;;;;;;0.10;0.10;;;12.80;99.90;;;;;;5089712;28;20033;-84
2022/07/14 04:22:11;;;;;;;0.10;0.10;;;12.80;99.90;;;;;;5073006;28;20410;-87
2022/07/14 04:24:38;;;;;;;0.10;0.10;;;12.90;99.90;;;;;;5089529;28;20044;-84
2022/07/14 04:27:05;;;;;;;0.10;0.10;;;12.90;99.90;;;;;;5072800;28;20040;-88
2022/07/14 04:29:32;;;;;;;0.00;0.00;;;12.90;99.90;;;;;;5090271;28;20044;-84
2022/07/14 04:31:58;;;;;;;0.10;0.10;;;13.00;99.90;;;;;;5072853;28;20044;-87
2022/07/14 04:34:25;;;;;;;0.20;0.15;;;12.90;99.90;;;;;;5089663;28;20405;-87
2022/07/14 04:36:52;;;;;;;0.10;0.10;;;13.00;99.90;;;;;;5089017;28;20056;-87
2022/07/14 04:39:18;;;;;;;0.20;0.20;;;13.00;99.90;;;;;;5075527;28;20056;-84
2022/07/14 04:41:45;;;;;;;0.10;0.10;;;13.00;99.90;;;;;;5093423;28;20489;-86
2022/07/14 04:44:12;;;;;;;0.20;0.20;;;13.00;99.90;;;;;;5060830;28;20033;-84
2022/07/14 04:46:38;;;;;;;0.10;0.10;;;13.00;99.90;;;;;;5093405;28;20123;-85
2022/07/14 04:52:02;;;;;;;0.10;0.10;;;13.10;99.90;;;;;;5093010;28;20135;-87
2022/07/14 04:54:30;;;;;;;0.20;0.20;;;13.10;99.90;;;;;;5071692;28;20478;-84
2022/07/14 04:56:57;;;;;;;0.22;0.22;;;13.10;99.90;;;;;;5106295;28;20041;-84
2022/07/14 04:59:24;;;;;;;0.17;0.10;;;13.10;99.90;;;;;;5090077;28;20405;-87
2022/07/14 05:01:50;;;;;;;0.13;0.13;;;13.20;99.90;;;;;;5089229;28;20504;-84
2022/07/14 05:04:17;;;;;;;0.13;0.13;;;13.20;99.90;;;;;;5093119;28;20032;-84
2022/07/14 05:06:46;;;;;;;0.00;0.00;;;13.30;99.90;;;;;;5043788;28;20040;-87
2022/07/14 05:09:13;;;;;;;0.17;0.17;;;13.30;99.90;;;;;;5060856;28;20103;-88
2022/07/14 05:11:41;;;;;;;0.10;0.10;;;13.30;99.90;;;;;;5076486;28;20082;-84
2022/07/14 05:14:08;;;;;;;0.10;0.10;;;13.40;99.90;;;;;;5059686;28;20041;-84
2022/07/14 05:16:34;;;;;;;0.32;0.20;;;13.40;99.90;;;;;;5060152;28;20051;-87
2022/07/14 05:19:01;;;;;;;0.57;0.20;;;13.50;99.90;;;;;;5043185;28;20045;-87
2022/07/14 05:21:28;;;;;;;0.20;0.20;;;13.50;99.90;;;;;;5059782;28;20040;-84
2022/07/14 05:23:55;;;;;;;0.10;0.10;;;13.50;99.90;;;;;;5059590;28;20116;-84
2022/07/14 05:26:21;;;;;;;0.00;0.00;;;13.60;99.90;;;;;;5043613;28;20040;-87
2022/07/14 05:28:48;;;;;;;0.10;0.10;;;13.60;99.90;;;;;;5060003;28;20045;-87
2022/07/14 05:31:15;;;;;;;0.50;0.13;;;13.70;99.90;;;;;;5059283;28;20417;-87
2022/07/14 05:33:42;;;;;;;0.10;0.10;;;13.80;99.90;;;;;;5063023;28;20572;-84
2022/07/14 05:36:08;;;;;;;0.10;0.10;;;13.80;99.90;;;;;;5078631;28;20105;-84
2022/07/14 05:38:35;;;;;;;0.20;0.20;;;13.90;99.90;;;;;;5078938;28;20057;-84
2022/07/14 05:41:02;;;;;;;0.13;0.13;;;13.90;99.90;;;;;;5095510;28;20067;-84
2022/07/14 05:43:31;;;;;;;0.17;0.10;;;14.00;99.90;;;;;;5096702;28;20036;-87
2022/07/14 05:46:06;;;;;;;0.10;0.10;;;14.10;99.90;;;;;;5079535;28;20040;-84
2022/07/14 05:48:33;;;;;;;0.10;0.10;;;14.10;99.90;;;;;;5112698;28;20054;-87
2022/07/14 05:51:20;;;;;;;0.20;0.20;;;14.20;99.90;;;;;;5112230;28;20036;-84
2022/07/14 05:53:47;;;;;;;0.20;0.20;;;14.20;99.90;;;;;;5095427;28;20032;-83
2022/07/14 05:56:16;;;;;;;0.20;0.20;;;14.30;99.90;;;;;;5095296;28;20040;-87
2022/07/14 05:58:44;;;;;;;0.17;0.17;;;14.40;99.90;;;;;;5079091;28;20417;-88
2022/07/14 06:01:12;;;;;;;0.10;0.10;;;14.40;99.90;;;;;;5111869;28;20036;-87
2022/07/14 06:03:39;;;;;;;0.10;0.10;;;14.50;99.90;;;;;;5082060;28;20027;-87
2022/07/14 06:06:08;;;;;;;0.10;0.10;;;14.60;99.90;;;;;;5058844;28;20041;-84
2022/07/14 06:08:35;;;;;;;0.03;0.03;;;14.70;99.90;;;;;;5089392;28;20085;-84
2022/07/14 06:11:03;;;;;;;0.10;0.10;;;14.80;99.90;;;;;;5094494;28;20040;-84
2022/07/14 06:13:30;;;;;;;0.00;0.00;;;14.80;99.90;;;;;;5111865;28;20123;-84
2022/07/14 06:15:58;;;;;;;0.10;0.00;;;14.90;99.90;;;;;;5095502;28;20050;-86
2022/07/14 06:18:25;;;;;;;0.10;0.10;;;15.00;99.90;;;;;;5095419;28;20477;-87
2022/07/14 06:20:52;;;;;;;0.20;0.20;;;15.10;99.90;;;;;;5095339;28;20036;-83
2022/07/14 06:23:19;;;;;;;0.20;0.20;;;15.10;99.90;;;;;;5094807;28;20040;-86
2022/07/14 06:25:45;;;;;;;0.10;0.10;;;15.10;99.90;;;;;;5067604;28;20043;-87
2022/07/14 06:28:12;;;;;;;0.13;0.13;;;15.20;99.90;;;;;;5060067;28;20040;-87
2022/07/14 06:30:39;;;;;;;0.32;0.20;;;15.20;99.90;;;;;;5088660;28;20044;-84
2022/07/14 06:33:06;;;;;;;0.00;0.00;;;15.30;99.90;;;;;;5042151;28;20095;-84
2022/07/14 06:35:33;;;;;;;0.20;0.17;;;15.40;99.90;;;;;;5080255;28;20072;-87
2022/07/14 06:38:00;;;;;;;0.00;0.00;;;15.50;99.90;;;;;;5051308;28;20055;-84
2022/07/14 06:40:27;;;;;;;0.00;0.00;;;15.60;99.90;;;;;;5082890;28;20036;-84
2022/07/14 06:42:53;;;;;;;0.10;0.10;;;15.70;99.90;;;;;;5022913;28;20086;-83
2022/07/14 06:45:20;;;;;;;0.00;0.00;;;15.70;99.90;;;;;;5090005;28;20726;-87
2022/07/14 06:47:47;;;;;;;0.20;0.20;;;15.90;99.90;;;;;;5072324;28;20072;-87
2022/07/14 06:50:14;;;;;;;0.00;0.00;;;16.00;99.90;;;;;;5049836;28;20040;-86
2022/07/14 06:52:41;;;;;;;0.00;0.00;;;16.00;99.90;;;;;;5127811;28;20097;-84
2022/07/14 06:55:08;;;;;;;0.00;0.00;;;16.20;99.90;;;;;;5110941;28;20036;-86
2022/07/14 06:57:35;;;;;;;0.10;0.10;;;16.30;99.90;;;;;;5078163;28;20036;-85
2022/07/14 07:00:07;;;;;;;0.10;0.10;;;16.40;99.90;;;;;;5127588;28;20581;-84
2022/07/14 07:02:36;;;;;;;0.00;0.00;;;16.50;99.90;;;;;;5078149;28;20066;-85
2022/07/14 07:07:58;;;;;;;0.03;0.03;;;16.50;99.90;;;;;;5096084;28;20050;-84
2022/07/14 07:10:25;;;;;;;0.13;0.10;;;16.60;99.90;;;;;;5093628;28;20143;-89
2022/07/14 07:12:53;;;;;;;0.00;0.00;;;16.60;99.90;;;;;;5075130;28;20039;-86
2022/07/14 07:15:20;;;;;;;0.17;0.10;;;16.70;99.90;;;;;;5076865;28;20040;-84
2022/07/14 07:17:47;;;;;;;0.00;0.00;;;16.80;99.90;;;;;;5077691;28;20093;-85
2022/07/14 07:20:14;;;;;;;0.03;0.03;;;16.90;99.90;;;;;;5077321;28;20032;-84
2022/07/14 07:22:40;;;;;;;0.10;0.10;;;17.10;99.90;;;;;;5077302;28;20043;-84
2022/07/14 07:25:08;;;;;;;0.08;0.08;;;17.20;99.90;;;;;;5077360;28;20046;-85
2022/07/14 07:27:35;;;;;;;0.10;0.10;;;17.40;99.90;;;;;;5093947;28;20082;-84
2022/07/14 07:30:03;;;;;;;0.05;0.05;;;17.60;99.90;;;;;;5094502;28;20091;-84
2022/07/14 07:32:29;;;;;;;0.00;0.00;;;17.70;99.90;;;;;;5060675;28;20044;-83
2022/07/14 07:34:56;;;;;;;1.30;0.20;;;17.80;99.90;;;;;;5059457;28;20044;-85
2022/07/14 07:37:23;;;;;;;0.00;0.00;;;18.00;99.90;;;;;;5056501;28;20110;-84
2022/07/14 07:39:49;;;;;;;0.00;0.00;;;18.00;99.90;;;;;;5040942;28;20032;-85
2022/07/14 07:42:16;;;;;;;0.00;0.00;;;17.90;99.90;;;;;;5040721;28;20608;-85
2022/07/14 07:44:43;;;;;;;0.03;0.03;;;18.00;99.90;;;;;;5056528;28;20489;-86
2022/07/14 07:47:09;;;;;;;0.10;0.10;;;18.20;99.90;;;;;;5056043;28;20033;-84
2022/07/14 07:49:36;;;;;;;0.00;0.00;;;18.20;99.90;;;;;;5056741;28;20037;-83
2022/07/14 07:52:03;;;;;;;0.30;0.17;;;18.10;99.90;;;;;;5056710;28;20044;-84
2022/07/14 07:54:30;;;;;;;0.00;0.00;;;18.10;99.90;;;;;;5072755;28;20043;-85
2022/07/14 07:56:59;;;;;;;0.05;0.05;;;18.00;99.90;;;;;;5089649;28;20058;-85
2022/07/14 07:59:26;;;;;;;0.00;0.00;;;18.10;99.90;;;;;;5040679;28;20504;-84
2022/07/14 08:01:53;;;;;;;0.00;0.00;;;18.20;99.90;;;;;;5040287;28;20131;-84
2022/07/14 08:04:19;;;;;;;0.00;0.00;;;18.40;99.90;;;;;;5056467;28;20044;-88
2022/07/14 08:06:46;;;;;;;0.00;0.00;;;18.40;99.90;;;;;;5089699;28;20036;-83
2022/07/14 08:09:13;;;;;;;0.00;0.00;;;18.30;99.90;;;;;;5095900;28;20040;-85
2022/07/14 08:11:42;;;;;;;0.20;0.20;;;18.30;99.90;;;;;;5076380;28;20504;-83
2022/07/14 08:14:47;;;;;;;0.03;0.03;;;18.20;99.90;;;;;;5076837;28;20040;-84
2022/07/14 08:16:57;;;;;;;0.00;0.00;;;18.10;99.90;;;;;;5109769;28;20443;-84
2022/07/14 08:19:24;;;;;;;0.57;0.22;;;18.00;99.90;;;;;;5073543;28;20036;-84
2022/07/14 08:21:51;;;;;;;0.00;0.00;;;18.20;99.90;;;;;;5056878;28;20098;-84
2022/07/14 08:24:19;;;;;;;0.10;0.10;;;18.30;99.90;;;;;;5039936;28;20452;-86
2022/07/14 08:26:47;;;;;;;0.00;0.00;;;18.50;99.90;;;;;;5073010;28;20040;-83
2022/07/14 08:29:14;;;;;;;0.00;0.00;;;18.70;99.90;;;;;;5056934;28;20131;-86
2022/07/14 08:31:41;;;;;;;0.10;0.10;;;18.80;99.90;;;;;;5056289;28;20036;-83
2022/07/14 08:34:07;;;;;;;0.20;0.20;;;18.90;99.90;;;;;;5072653;28;20047;-87
2022/07/14 08:36:34;;;;;;;0.00;0.00;;;18.90;99.90;;;;;;5072815;28;20040;-86
2022/07/14 08:39:04;;;;;;;0.00;0.00;;;18.80;99.90;;;;;;5089258;28;20117;-86
2022/07/14 08:41:33;;;;;;;0.00;0.00;;;18.80;99.90;;;;;;5089758;28;20064;-86
2022/07/14 08:44:01;;;;;;;0.00;0.00;;;18.90;99.90;;;;;;5073406;28;20509;-87
2022/07/14 08:46:28;;;;;;;0.10;0.05;;;19.00;99.90;;;;;;5056060;28;20042;-87
2022/07/14 08:48:55;;;;;;;0.10;0.10;;;19.20;99.90;;;;;;5072940;28;20040;-87
2022/07/14 08:51:23;;;;;;;0.20;0.15;;;19.30;99.90;;;;;;5039536;28;20127;-86
2022/07/14 08:53:50;;;;;;;0.00;0.00;;;19.40;99.90;;;;;;5040323;28;20037;-86
2022/07/14 08:56:17;;;;;;;0.15;0.08;;;19.50;99.90;;;;;;5072603;28;20063;-86
2022/07/14 08:58:44;;;;;;;0.00;0.00;;;19.50;99.90;;;;;;5056586;28;20471;-86
2022/07/14 09:01:11;;;;;;;0.10;0.00;;;19.60;99.90;;;;;;5040390;28;20076;-86
2022/07/14 09:03:39;;;;;;;0.00;0.00;;;19.60;99.90;;;;;;5072703;28;20044;-87
2022/07/14 09:06:06;;;;;;;0.05;0.05;;;19.70;99.90;;;;;;5056085;28;20588;-84
2022/07/14 09:08:54;;;;;;;0.00;0.00;;;19.80;99.90;;;;;;5039709;28;20135;-84
2022/07/14 09:11:21;;;;;;;0.00;0.00;;;20.00;99.90;;;;;;5052467;28;20037;-84
2022/07/14 09:13:48;;;;;;;0.00;0.00;;;20.10;99.90;;;;;;5087362;28;20040;-84
2022/07/14 09:16:20;;;;;;;0.10;0.10;;;20.20;99.90;;;;;;5072804;28;20040;-84
2022/07/14 09:19:07;;;;;;;0.00;0.00;;;20.10;99.90;;;;;;5072467;28;20105;-84
2022/07/14 09:21:38;;;;;;;0.00;0.00;;;20.00;99.90;;;;;;5078185;28;20032;-85
2022/07/14 09:24:07;;;;;;;0.00;0.00;;;19.90;99.90;;;;;;5110608;28;20497;-85
2022/07/14 09:27:01;;;;;;;0.10;0.10;;;19.50;99.90;;;;;;5109832;28;20072;-85
2022/07/14 09:29:29;;;;;;;0.00;0.00;;;19.60;99.90;;;;;;5054918;28;20045;-83
2022/07/14 09:31:56;;;;;;;0.00;0.00;;;19.50;99.90;;;;;;5076273;28;20436;-84
2022/07/14 09:34:36;;;;;;;0.38;0.13;;;19.50;99.90;;;;;;5043518;28;20047;-84
2022/07/14 09:37:17;;;;;;;0.00;0.00;;;19.60;99.90;;;;;;5076022;28;20053;-84
2022/07/14 09:39:58;;;;;;;0.10;0.10;;;19.90;99.90;;;;;;5075899;28;20052;-84
2022/07/14 09:42:57;;;;;;;0.17;0.10;;;20.10;99.90;;;;;;5075874;28;20142;-85
2022/07/14 09:45:38;;;;;;;0.05;0.05;;;20.20;99.90;;;;;;5076083;28;20124;-85
2022/07/14 09:48:13;;;;;;;0.10;0.10;;;20.10;99.90;;;;;;5059707;28;20040;-84
2022/07/14 09:50:55;;;;;;;0.10;0.10;;;20.30;99.90;;;;;;5059649;28;20048;-84
2022/07/14 09:53:31;;;;;;;0.08;0.08;;;20.20;99.90;;;;;;5076219;28;20044;-84
2022/07/14 09:56:08;;;;;;;0.00;0.00;;;20.10;99.90;;;;;;5075621;28;20040;-84
2022/07/14 09:58:44;;;;;;;0.10;0.10;;;20.00;99.90;;;;;;5059021;28;20043;-86
2022/07/14 10:01:15;;;;;;;0.05;0.05;;;20.00;99.90;;;;;;5075456;28;20103;-85
2022/07/14 10:03:45;;;;;;;0.00;0.00;;;20.10;99.90;;;;;;5058961;28;20035;-83
2022/07/14 10:06:13;;;;;;;0.10;0.10;;;20.20;99.90;;;;;;5075597;28;20036;-85
2022/07/14 10:08:43;;;;;;;0.00;0.00;;;20.20;99.90;;;;;;5092443;28;20088;-87
2022/07/14 10:11:10;;;;;;;0.15;0.10;;;20.30;99.90;;;;;;5058883;28;20047;-85
2022/07/14 10:13:38;;;;;;;0.00;0.00;;;20.10;99.90;;;;;;5075256;28;20152;-85
2022/07/14 10:16:06;;;;;;;0.00;0.00;;;20.30;99.90;;;;;;5085532;28;20126;-85
2022/07/14 10:18:33;;;;;;;0.08;0.08;;;20.20;99.90;;;;;;5095239;28;20040;-86
2022/07/14 10:21:01;;;;;;;0.00;0.00;;;20.10;99.90;;;;;;5079185;28;20568;-85
2022/07/14 10:23:29;;;;;;;0.00;0.00;;;20.20;99.90;;;;;;5078565;28;20044;-87
2022/07/14 10:25:58;;;;;;;0.28;0.10;;;20.40;99.90;;;;;;5108859;28;20044;-86
2022/07/14 10:28:26;;;;;;;0.10;0.10;;;20.50;99.90;;;;;;5092480;28;20044;-86
2022/07/14 10:31:07;;;;;;;0.00;0.00;;;20.70;99.90;;;;;;5092029;28;20127;-86
2022/07/14 10:33:56;;;;;;;0.15;0.15;;;20.70;99.90;;;;;;5078565;28;20045;-86
2022/07/14 10:36:33;;;;;;;0.03;0.03;;;20.80;99.90;;;;;;5076130;28;20565;-87
2022/07/14 10:39:06;;;;;;;0.10;0.10;;;20.90;99.90;;;;;;5087638;28;20055;-87
2022/07/14 10:41:59;;;;;;;0.08;0.08;;;20.90;99.90;;;;;;5092378;28;20114;-88
2022/07/14 10:44:29;;;;;;;0.10;0.10;;;21.00;99.90;;;;;;5076167;28;20075;-87
2022/07/14 10:47:16;;;;;;;0.32;0.15;;;21.10;99.90;;;;;;5058995;28;20040;-88
2022/07/14 10:50:05;;;;;;;1.48;0.43;;;21.10;99.90;;;;;;5073317;28;20548;-88
2022/07/14 10:52:35;;;;;;;0.15;0.15;;;21.00;99.90;;;;;;5075232;28;20040;-88
2022/07/14 10:55:28;;;;;;;0.00;0.00;;;21.10;99.90;;;;;;5075438;28;20079;-87
2022/07/14 10:58:07;;;;;;;0.10;0.10;;;20.90;99.90;;;;;;5070129;28;20048;-88
2022/07/14 11:00:55;;;;;;;0.00;0.00;;;20.90;99.90;;;;;;5073852;28;20489;-86
2022/07/14 11:03:28;;;;;;;0.00;0.00;;;20.80;99.90;;;;;;5082038;28;20032;-86
2022/07/14 11:06:01;;;;;;;0.10;0.10;;;20.50;99.90;;;;;;5094135;28;20512;-86
2022/07/14 11:08:28;;;;;;;0.22;0.13;;;20.50;99.90;;;;;;5074254;28;20048;-87
2022/07/14 11:10:56;;;;;;;0.38;0.17;;;20.40;99.90;;;;;;5074348;28;20131;-87
2022/07/14 11:13:23;;;;;;;0.00;0.00;;;20.40;99.90;;;;;;5074451;28;20074;-86
2022/07/14 11:15:51;;;;;;;0.10;0.10;;;20.60;99.90;;;;;;5055855;28;20402;-88
2022/07/14 11:18:18;;;;;;;0.08;0.08;;;20.60;99.90;;;;;;5074757;28;20044;-88
2022/07/14 11:20:50;;;;;;;0.20;0.00;;;20.60;99.90;;;;;;5080959;28;20031;-86
2022/07/14 11:23:21;;;;;;;0.13;0.10;;;20.40;99.90;;;;;;5075099;28;20043;-86
2022/07/14 11:25:52;;;;;;;0.20;0.10;;;20.40;99.90;;;;;;5058095;28;20133;-87
2022/07/14 11:28:43;;;;;;;0.00;0.00;;;20.20;99.90;;;;;;5058556;28;20044;-87
2022/07/14 11:31:41;;;;;;;0.00;0.00;;;20.00;99.90;;;;;;5090943;28;20087;-88
2022/07/14 11:37:09;;;;;;;0.20;0.17;;;19.90;99.90;;;;;;5090163;28;20075;-86
2022/07/14 11:39:37;;;;;;;0.10;0.10;;;20.00;99.90;;;;;;5073500;28;20623;-87
2022/07/14 11:42:14;;;;;;;0.10;0.10;;;20.00;99.90;;;;;;5073872;28;20127;-87
2022/07/14 11:44:41;;;;;;;0.00;0.00;;;20.10;99.90;;;;;;5090284;28;20067;-87
2022/07/14 11:47:17;;;;;;;0.00;0.00;;;20.10;99.90;;;;;;5088796;28;20078;-86
2022/07/14 11:49:53;;;;;;;0.00;0.00;;;20.20;99.90;;;;;;5078419;28;20619;-86
2022/07/14 11:52:29;;;;;;;0.20;0.20;;;20.40;99.90;;;;;;5110294;28;20721;-86
2022/07/14 11:54:58;;;;;;;0.47;0.20;;;20.40;99.90;;;;;;5089057;28;20043;-86
2022/07/14 11:57:26;;;;;;;0.10;0.10;;;20.60;99.90;;;;;;5058065;28;20068;-88
2022/07/14 12:00:00;;;;;;;0.25;0.17;;;20.70;99.90;;;;;;5056862;28;20074;-87
2022/07/14 12:02:27;;;;;;;0.10;0.10;;;20.90;99.90;;;;;;5054061;28;20044;-86
2022/07/14 12:05:01;;;;;;;0.10;0.10;;;20.90;99.90;;;;;;5088240;28;20036;-88
2022/07/14 12:07:48;;;;;;;0.08;0.08;;;21.10;99.90;;;;;;5080491;28;20653;-89
2022/07/14 12:10:16;;;;;;;0.10;0.10;;;21.30;99.90;;;;;;5073959;28;20409;-89
2022/07/14 12:12:47;;;;;;;0.10;0.10;;;21.30;99.90;;;;;;5073870;28;20091;-88
2022/07/14 12:15:24;;;;;;;0.10;0.10;;;21.40;99.90;;;;;;5073861;28;20079;-90
2022/07/14 12:17:53;;;;;;;0.57;0.30;;;21.60;99.90;;;;;;5074053;28;20028;-90
2022/07/14 12:20:22;;;;;;;0.10;0.10;;;21.60;99.90;;;;;;5073911;28;20864;-90
2022/07/14 12:22:56;;;;;;;0.10;0.05;;;21.50;99.90;;;;;;5073495;28;20041;-88
2022/07/14 12:25:33;;;;;;;0.03;0.03;;;21.20;99.90;;;;;;5057441;28;20556;-89
2022/07/14 12:28:02;;;;;;;0.10;0.10;;;21.30;99.90;;;;;;5090537;28;20127;-88
2022/07/14 12:30:50;;;;;;;0.05;0.05;;;21.30;99.90;;;;;;5074173;28;20047;-87
2022/07/14 12:33:32;;;;;;;0.10;0.10;;;21.30;99.90;;;;;;5074152;28;20048;-87
2022/07/14 12:36:00;;;;;;;0.22;0.10;;;21.50;99.90;;;;;;5073624;28;20048;-89
2022/07/14 12:38:30;;;;;;;0.10;0.10;;;21.40;99.90;;;;;;5057322;28;20080;-90
2022/07/14 12:41:01;;;;;;;0.32;0.10;;;21.30;99.90;;;;;;5073826;28;20654;-87
2022/07/14 12:43:31;;;;;;;0.10;0.10;;;21.20;99.90;;;;;;5073069;28;20036;-87
2022/07/14 12:46:09;;;;;;;0.03;0.03;;;21.10;99.90;;;;;;5089312;28;20064;-86
2022/07/14 12:49:00;;;;;;;0.05;0.05;;;20.90;99.90;;;;;;5073584;28;20554;-88
2022/07/14 12:51:29;;;;;;;0.00;0.00;;;20.80;99.90;;;;;;5074365;28;20089;-90
2022/07/14 12:53:55;;;;;;;0.10;0.10;;;20.70;99.90;;;;;;5091340;28;20040;-88
2022/07/14 12:56:22;;;;;;;0.10;0.10;;;20.70;99.90;;;;;;5073676;28;20408;-88
2022/07/14 12:58:49;;;;;;;0.00;0.00;;;20.50;99.90;;;;;;5057116;28;20065;-85
2022/07/14 13:01:16;;;;;;;0.10;0.10;;;20.40;99.90;;;;;;5094828;28;20042;-86
2022/07/14 13:03:53;;;;;;;0.08;0.08;;;20.30;99.90;;;;;;5094661;28;20072;-86
2022/07/14 13:06:20;;;;;;;0.10;0.10;;;20.20;99.90;;;;;;5082446;28;20040;-84
2022/07/14 13:08:47;;;;;;;0.08;0.08;;;20.00;99.90;;;;;;5080169;28;20485;-84
2022/07/14 13:11:14;;;;;;;0.00;0.00;;;20.10;99.90;;;;;;5080321;28;20089;-85